Huvudsida
METAR-TAF:

METAR-TAF

Flygplatser :

Qazvin Airport

Qazvin, Iran

latitud: 36-15N, longitud: 050-00E, höjd: 1278 m

Aktuellt väderrapport

Denna rapport gjordes för 18 minuter sedan, klockan 19:00 UTC
Vind 2 kt från nord
Temperatur 6°C
Fuktighet 81%
Tryck 1016 hPa
Sikt 10 km eller mer
Inga moln under 1 500 m eller inga cumulonimbus

METAR: OIIK 281900Z 35002KT CAVOK 06/03 Q1016

Tid: 22:48 (19:18 UTC)


TAF: saknas

Aktuella väderrapporter och prognoser från 4000 flygplatser (METAR- och TAF-rapporter).

De tillgängliga stationerna syns som gula och röda prickar på kartan.

För musen över prickarna för att se namnen på stationerna.

Klicka sedan för att få väderrapporter och prognoser.

För att ändra kartan: Klicka på de gröna knapparna med ett svart kors på för att zooma in; den gröna knappen med ett streck på för att zooma ut; eller på de gröna pilarna för angränsande kartor.


METAR-TAF: